Buoy 53524

sailwx.info

Track history (hours):
 
Tides and Currents Weather Stations Pressure Air Temp Water Temp Dewpoint Dewpoint Depression Visibility Wind Speed Wind Dir Waves Ship Positions

Drifting buoy 53524

Last reported at 2015-Jan-27 19:00 UTC. Time now 2015-Jan-27 23:08 UTC.
Position S 15°46' E 086°57'.

Barometer 1009.7 mb
Water temperature 28.8 ° C

Date/timePositionNaut miles runAvg speedWind from/ knotsBaromVisibWave heightAir tempDewpointWater temp
2015-Jan-27 19:00S 15°46' E 086°57'0 0.0 1009.7 28.8
2015-Jan-27 15:00S 15°46' E 086°57'3 0.9 1011.1 29.1
2015-Jan-27 12:00S 15°46' E 086°59'2 1.1 1009.3 29.4
2015-Jan-27 10:00S 15°45' E 087°01'0 0.0 1009.0 29.6
2015-Jan-27 09:00S 15°45' E 087°01'5 0.7 1009.3 29.5
2015-Jan-27 02:00S 15°45' E 087°06'0 0.0 1011.3 28.7
2015-Jan-27 01:00S 15°45' E 087°06'2 1.0 1011.3 28.7
2015-Jan-26 23:00S 15°45' E 087°08'0 0.0 1011.3 28.8
2015-Jan-26 22:00S 15°45' E 087°08'0 0.0 1010.5 28.9
2015-Jan-26 21:00S 15°45' E 087°08'5 2.4 1011.4 28.9
2015-Jan-26 19:00S 15°47' E 087°13'1 0.3 1011.8 29.2
2015-Jan-26 15:00S 15°47' E 087°14'3 2.9 1012.7 29.4
2015-Jan-26 14:00S 15°47' E 087°17'1 0.3 1012.3 29.5
2015-Jan-26 12:00S 15°48' E 087°17'3 1.3 1010.9 30.1
2015-Jan-26 10:00S 15°50' E 087°18'1 1.5 1011.0 31.2
2015-Jan-26 09:00S 15°51' E 087°19'3 1.4 1011.3 31.2
2015-Jan-26 07:00S 15°53' E 087°20'3 0.4 1012.3 31.4
2015-Jan-25 23:00S 15°56' E 087°19'0 0.1 1011.6 28.7
2015-Jan-25 21:00S 15°56' E 087°19'1 1.0 1011.7 28.7
2015-Jan-25 20:00S 15°56' E 087°18'0 0.0 1012.3 28.7
2015-Jan-25 19:00S 15°56' E 087°18'1 0.2 1012.7 28.7
2015-Jan-25 16:00S 15°56' E 087°18'1 1.3 1013.2 28.7
2015-Jan-25 15:00S 15°56' E 087°19'1 0.6 1012.7 28.7
2015-Jan-25 13:00S 15°54' E 087°18'1 0.6 1011.3 28.7
2015-Jan-25 12:00S 15°54' E 087°18'0 0.2 1010.7 28.7
2015-Jan-25 10:00S 15°54' E 087°18'3 1.0 1010.0 28.8
2015-Jan-25 07:00S 15°52' E 087°20'2 1.7 1011.0 28.7
2015-Jan-25 06:00S 15°53' E 087°18'2 0.8 1011.5 28.7
2015-Jan-25 04:00S 15°52' E 087°20'0 0.0 1011.5 28.7
2015-Jan-25 03:00S 15°52' E 087°20'3 1.1 1011.0 28.7
2015-Jan-25 00:00S 15°51' E 087°23'1 0.6 1009.5 28.7
2015-Jan-24 23:00S 15°52' E 087°23'4 1.5 1008.7 28.7
2015-Jan-24 20:00S 15°53' E 087°28'0 0.0 1009.0 28.7
2015-Jan-24 16:00S 15°53' E 087°28'2 1.2 1010.3 28.7
2015-Jan-24 14:00S 15°55' E 087°29'0 0.0 1009.5 28.7
2015-Jan-24 12:00S 15°55' E 087°29'1 0.3 1008.3 28.7
2015-Jan-24 10:00S 15°56' E 087°30'2 1.5 1008.1 28.8
2015-Jan-24 09:00S 15°57' E 087°31'1 0.8 1008.4 28.8
2015-Jan-24 08:00S 15°58' E 087°31'0 0.1 1008.8 28.8
2015-Jan-24 07:00S 15°58' E 087°31'0 0.0 1009.5 28.8
2015-Jan-24 06:00S 15°58' E 087°31'2 1.0 1010.1 28.7
2015-Jan-24 04:00S 15°60' E 087°32'1 1.1 1011.3 28.6
2015-Jan-24 03:00S 15°60' E 087°30'0 0.0 1010.9 28.6
2015-Jan-23 22:00S 15°60' E 087°30'1 0.8 1008.8 28.6
2015-Jan-23 21:00S 15°60' E 087°31'1 1.5 1009.0 28.6
2015-Jan-23 20:00S 15°58' E 087°32'0 0.1 1009.1 28.6
2015-Jan-23 16:00S 15°58' E 087°32'2 0.9 1010.8 28.7
2015-Jan-23 14:00S 15°58' E 087°34'2 0.5 1009.7 28.7
2015-Jan-23 10:00S 15°58' E 087°36'0 0.1 1007.6 28.7
2015-Jan-23 09:00S 15°59' E 087°36'2 0.8 1008.2 28.8
2015-Jan-23 07:00S 15°59' E 087°38'0 0.0 1009.2 28.8
2015-Jan-23 06:00S 15°59' E 087°38'3 1.3 1009.8 28.8
2015-Jan-23 04:00S 16°00' E 087°40'0 0.0 1010.3 28.7
2015-Jan-23 03:00S 16°00' E 087°40'4 0.8 1010.2 28.6
2015-Jan-22 22:00S 16°03' E 087°43'0 0.0 1007.9 28.6
2015-Jan-22 21:00S 16°03' E 087°43'1 0.7 1008.5 28.6
2015-Jan-22 20:00S 16°03' E 087°44'0 0.0 1009.3 28.6
2015-Jan-22 18:00S 16°03' E 087°44'2 1.0 1011.0 28.6
2015-Jan-22 16:00S 16°05' E 087°45'2 0.7 1011.6 28.6
2015-Jan-22 13:00S 16°07' E 087°46'0 0.0 1010.3 28.7
2015-Jan-22 12:00S 16°07' E 087°46'1 0.8 1009.8 28.7
2015-Jan-22 11:00S 16°07' E 087°47'1 0.2 1009.7 28.8
2015-Jan-22 07:00S 16°08' E 087°46'2 0.5 1011.5 28.6
2015-Jan-22 04:00S 16°08' E 087°48'1 0.1 1012.6 28.6
2015-Jan-22 00:00S 16°08' E 087°47'2 0.4 1010.8 28.5
2015-Jan-21 18:00S 16°06' E 087°46'0 0.2 1013.4 28.6
2015-Jan-21 15:00S 16°06' E 087°47'4 0.9 1014.2 28.6
2015-Jan-21 11:00S 16°05' E 087°50'0 0.0 1010.9 28.6
2015-Jan-21 09:00S 16°05' E 087°50'7 0.7 1010.7 28.6
2015-Jan-21 00:00S 16°07' E 087°57'0 0.1 1010.7 28.6
2015-Jan-20 23:00S 16°07' E 087°57'1 0.7 1010.1 28.6
2015-Jan-20 21:00S 16°08' E 087°56'0 0.2 1009.7 28.6
2015-Jan-20 19:00S 16°08' E 087°57'0 0.3 1010.4 28.6
2015-Jan-20 18:00S 16°09' E 087°57'0 0.2 1010.8 28.6
2015-Jan-20 16:00S 16°09' E 087°57'2 0.4 1011.3 28.6
2015-Jan-20 11:00S 16°11' E 087°57'0 0.0 1008.2 28.7
2015-Jan-20 10:00S 16°11' E 087°57'2 1.2 1007.2 28.7
2015-Jan-20 08:00S 16°11' E 087°54'1 0.2 1008.6 28.7
2015-Jan-20 03:00S 16°11' E 087°54'2 0.8 1011.0 28.7
2015-Jan-20 01:00S 16°10' E 087°54'1 1.0 1009.1 28.7
2015-Jan-20 00:00S 16°11' E 087°54'1 0.5 1008.2 28.7
2015-Jan-19 22:00S 16°11' E 087°53'1 0.7 1007.2 28.8
2015-Jan-19 21:00S 16°11' E 087°52'0 0.0 1007.6 28.8
2015-Jan-19 20:00S 16°11' E 087°52'0 0.1 1007.9 28.8
2015-Jan-19 18:00S 16°11' E 087°52'1 0.2 1009.2 28.8
2015-Jan-19 15:00S 16°11' E 087°52'2 0.4 1009.1 28.8
2015-Jan-19 10:00S 16°10' E 087°50'1 0.8 1006.4 29.0
2015-Jan-19 09:00S 16°09' E 087°50'2 2.0 1007.0 28.9
2015-Jan-19 08:00S 16°07' E 087°50'0 0.0 1007.6 28.8
2015-Jan-19 07:00S 16°07' E 087°50'1 0.3 1008.2 28.8
2015-Jan-19 04:00S 16°08' E 087°50'0 0.0 1009.5 28.7
2015-Jan-19 03:00S 16°08' E 087°50'1 0.4 1009.4 28.6
2015-Jan-19 00:00S 16°07' E 087°49'1 0.5 1008.5 28.6
2015-Jan-18 21:00S 16°06' E 087°48'2 0.8 1008.0 28.6
2015-Jan-18 19:00S 16°04' E 087°48'1 0.3 1009.9 28.7
2015-Jan-18 15:00S 16°03' E 087°48'2 0.4 1010.1 28.7
2015-Jan-18 11:00S 16°02' E 087°48'1 1.3 1008.1 28.9
2015-Jan-18 10:00S 16°01' E 087°49'0 0.0 1008.0 28.9
2015-Jan-18 09:00S 16°01' E 087°49'1 0.8 1008.5 29.0
2015-Jan-18 08:00S 16°00' E 087°50'0 0.0 1008.9 28.9
2015-Jan-18 06:00S 16°00' E 087°50'1 0.3 1009.9 28.8
2015-Jan-18 04:00S 15°60' E 087°49'0 0.0 1010.7 28.7
2015-Jan-18 02:00S 15°60' E 087°49'0 0.2 1011.0 28.6
2015-Jan-18 00:00S 15°59' E 087°50'1 1.2 1009.9 28.6
2015-Jan-17 23:00S 15°58' E 087°49'0 0.0 1009.4 28.6
2015-Jan-17 21:00S 15°58' E 087°49'0 0.2 1009.4 28.7
2015-Jan-17 20:00S 15°58' E 087°50'1 1.0 1009.9 28.7
2015-Jan-17 19:00S 15°57' E 087°50'   1010.7 28.7
Track history (hours):
 
Tides and Currents Weather Stations Pressure Air Temp Water Temp Dewpoint Dewpoint Depression Visibility Wind Speed Wind Dir Waves Ship Positions

Drifting buoy 53524

Last reported at 2015-Jan-27 19:00 UTC. Time now 2015-Jan-27 23:08 UTC.
Position S 15°46' E 086°57'.

Barometer 1009.7 mb
Water temperature 28.8 ° C

Date/timePositionNaut miles runAvg speedWind from/ knotsBaromVisibWave heightAir tempDewpointWater temp
2015-Jan-27 19:00S 15°46' E 086°57'0 0.0 1009.7 28.8
2015-Jan-27 15:00S 15°46' E 086°57'3 0.9 1011.1 29.1
2015-Jan-27 12:00S 15°46' E 086°59'2 1.1 1009.3 29.4
2015-Jan-27 10:00S 15°45' E 087°01'0 0.0 1009.0 29.6
2015-Jan-27 09:00S 15°45' E 087°01'5 0.7 1009.3 29.5
2015-Jan-27 02:00S 15°45' E 087°06'0 0.0 1011.3 28.7
2015-Jan-27 01:00S 15°45' E 087°06'2 1.0 1011.3 28.7
2015-Jan-26 23:00S 15°45' E 087°08'0 0.0 1011.3 28.8
2015-Jan-26 22:00S 15°45' E 087°08'0 0.0 1010.5 28.9
2015-Jan-26 21:00S 15°45' E 087°08'5 2.4 1011.4 28.9
2015-Jan-26 19:00S 15°47' E 087°13'1 0.3 1011.8 29.2
2015-Jan-26 15:00S 15°47' E 087°14'3 2.9 1012.7 29.4
2015-Jan-26 14:00S 15°47' E 087°17'1 0.3 1012.3 29.5
2015-Jan-26 12:00S 15°48' E 087°17'3 1.3 1010.9 30.1
2015-Jan-26 10:00S 15°50' E 087°18'1 1.5 1011.0 31.2
2015-Jan-26 09:00S 15°51' E 087°19'3 1.4 1011.3 31.2
2015-Jan-26 07:00S 15°53' E 087°20'3 0.4 1012.3 31.4
2015-Jan-25 23:00S 15°56' E 087°19'0 0.1 1011.6 28.7
2015-Jan-25 21:00S 15°56' E 087°19'1 1.0 1011.7 28.7
2015-Jan-25 20:00S 15°56' E 087°18'0 0.0 1012.3 28.7
2015-Jan-25 19:00S 15°56' E 087°18'1 0.2 1012.7 28.7
2015-Jan-25 16:00S 15°56' E 087°18'1 1.3 1013.2 28.7
2015-Jan-25 15:00S 15°56' E 087°19'1 0.6 1012.7 28.7
2015-Jan-25 13:00S 15°54' E 087°18'1 0.6 1011.3 28.7
2015-Jan-25 12:00S 15°54' E 087°18'0 0.2 1010.7 28.7
2015-Jan-25 10:00S 15°54' E 087°18'3 1.0 1010.0 28.8
2015-Jan-25 07:00S 15°52' E 087°20'2 1.7 1011.0 28.7
2015-Jan-25 06:00S 15°53' E 087°18'2 0.8 1011.5 28.7
2015-Jan-25 04:00S 15°52' E 087°20'0 0.0 1011.5 28.7
2015-Jan-25 03:00S 15°52' E 087°20'3 1.1 1011.0 28.7
2015-Jan-25 00:00S 15°51' E 087°23'1 0.6 1009.5 28.7
2015-Jan-24 23:00S 15°52' E 087°23'4 1.5 1008.7 28.7
2015-Jan-24 20:00S 15°53' E 087°28'0 0.0 1009.0 28.7
2015-Jan-24 16:00S 15°53' E 087°28'2 1.2 1010.3 28.7
2015-Jan-24 14:00S 15°55' E 087°29'0 0.0 1009.5 28.7
2015-Jan-24 12:00S 15°55' E 087°29'1 0.3 1008.3 28.7
2015-Jan-24 10:00S 15°56' E 087°30'2 1.5 1008.1 28.8
2015-Jan-24 09:00S 15°57' E 087°31'1 0.8 1008.4 28.8
2015-Jan-24 08:00S 15°58' E 087°31'0 0.1 1008.8 28.8
2015-Jan-24 07:00S 15°58' E 087°31'0 0.0 1009.5 28.8
2015-Jan-24 06:00S 15°58' E 087°31'2 1.0 1010.1 28.7
2015-Jan-24 04:00S 15°60' E 087°32'1 1.1 1011.3 28.6
2015-Jan-24 03:00S 15°60' E 087°30'0 0.0 1010.9 28.6
2015-Jan-23 22:00S 15°60' E 087°30'1 0.8 1008.8 28.6
2015-Jan-23 21:00S 15°60' E 087°31'1 1.5 1009.0 28.6
2015-Jan-23 20:00S 15°58' E 087°32'0 0.1 1009.1 28.6
2015-Jan-23 16:00S 15°58' E 087°32'2 0.9 1010.8 28.7
2015-Jan-23 14:00S 15°58' E 087°34'2 0.5 1009.7 28.7
2015-Jan-23 10:00S 15°58' E 087°36'0 0.1 1007.6 28.7
2015-Jan-23 09:00S 15°59' E 087°36'2 0.8 1008.2 28.8
2015-Jan-23 07:00S 15°59' E 087°38'0 0.0 1009.2 28.8
2015-Jan-23 06:00S 15°59' E 087°38'3 1.3 1009.8 28.8
2015-Jan-23 04:00S 16°00' E 087°40'0 0.0 1010.3 28.7
2015-Jan-23 03:00S 16°00' E 087°40'4 0.8 1010.2 28.6
2015-Jan-22 22:00S 16°03' E 087°43'0 0.0 1007.9 28.6
2015-Jan-22 21:00S 16°03' E 087°43'1 0.7 1008.5 28.6
2015-Jan-22 20:00S 16°03' E 087°44'0 0.0 1009.3 28.6
2015-Jan-22 18:00S 16°03' E 087°44'2 1.0 1011.0 28.6
2015-Jan-22 16:00S 16°05' E 087°45'2 0.7 1011.6 28.6
2015-Jan-22 13:00S 16°07' E 087°46'0 0.0 1010.3 28.7
2015-Jan-22 12:00S 16°07' E 087°46'1 0.8 1009.8 28.7
2015-Jan-22 11:00S 16°07' E 087°47'1 0.2 1009.7 28.8
2015-Jan-22 07:00S 16°08' E 087°46'2 0.5 1011.5 28.6
2015-Jan-22 04:00S 16°08' E 087°48'1 0.1 1012.6 28.6
2015-Jan-22 00:00S 16°08' E 087°47'2 0.4 1010.8 28.5
2015-Jan-21 18:00S 16°06' E 087°46'0 0.2 1013.4 28.6
2015-Jan-21 15:00S 16°06' E 087°47'4 0.9 1014.2 28.6
2015-Jan-21 11:00S 16°05' E 087°50'0 0.0 1010.9 28.6
2015-Jan-21 09:00S 16°05' E 087°50'7 0.7 1010.7 28.6
2015-Jan-21 00:00S 16°07' E 087°57'0 0.1 1010.7 28.6
2015-Jan-20 23:00S 16°07' E 087°57'1 0.7 1010.1 28.6
2015-Jan-20 21:00S 16°08' E 087°56'0 0.2 1009.7 28.6
2015-Jan-20 19:00S 16°08' E 087°57'0 0.3 1010.4 28.6
2015-Jan-20 18:00S 16°09' E 087°57'0 0.2 1010.8 28.6
2015-Jan-20 16:00S 16°09' E 087°57'2 0.4 1011.3 28.6
2015-Jan-20 11:00S 16°11' E 087°57'0 0.0 1008.2 28.7
2015-Jan-20 10:00S 16°11' E 087°57'2 1.2 1007.2 28.7
2015-Jan-20 08:00S 16°11' E 087°54'1 0.2 1008.6 28.7
2015-Jan-20 03:00S 16°11' E 087°54'2 0.8 1011.0 28.7
2015-Jan-20 01:00S 16°10' E 087°54'1 1.0 1009.1 28.7
2015-Jan-20 00:00S 16°11' E 087°54'1 0.5 1008.2 28.7
2015-Jan-19 22:00S 16°11' E 087°53'1 0.7 1007.2 28.8
2015-Jan-19 21:00S 16°11' E 087°52'0 0.0 1007.6 28.8
2015-Jan-19 20:00S 16°11' E 087°52'0 0.1 1007.9 28.8
2015-Jan-19 18:00S 16°11' E 087°52'1 0.2 1009.2 28.8
2015-Jan-19 15:00S 16°11' E 087°52'2 0.4 1009.1 28.8
2015-Jan-19 10:00S 16°10' E 087°50'1 0.8 1006.4 29.0
2015-Jan-19 09:00S 16°09' E 087°50'2 2.0 1007.0 28.9
2015-Jan-19 08:00S 16°07' E 087°50'0 0.0 1007.6 28.8
2015-Jan-19 07:00S 16°07' E 087°50'1 0.3 1008.2 28.8
2015-Jan-19 04:00S 16°08' E 087°50'0 0.0 1009.5 28.7
2015-Jan-19 03:00S 16°08' E 087°50'1 0.4 1009.4 28.6
2015-Jan-19 00:00S 16°07' E 087°49'1 0.5 1008.5 28.6
2015-Jan-18 21:00S 16°06' E 087°48'2 0.8 1008.0 28.6
2015-Jan-18 19:00S 16°04' E 087°48'1 0.3 1009.9 28.7
2015-Jan-18 15:00S 16°03' E 087°48'2 0.4 1010.1 28.7
2015-Jan-18 11:00S 16°02' E 087°48'1 1.3 1008.1 28.9
2015-Jan-18 10:00S 16°01' E 087°49'0 0.0 1008.0 28.9
2015-Jan-18 09:00S 16°01' E 087°49'1 0.8 1008.5 29.0
2015-Jan-18 08:00S 16°00' E 087°50'0 0.0 1008.9 28.9
2015-Jan-18 06:00S 16°00' E 087°50'1 0.3 1009.9 28.8
2015-Jan-18 04:00S 15°60' E 087°49'0 0.0 1010.7 28.7
2015-Jan-18 02:00S 15°60' E 087°49'0 0.2 1011.0 28.6
2015-Jan-18 00:00S 15°59' E 087°50'1 1.2 1009.9 28.6
2015-Jan-17 23:00S 15°58' E 087°49'0 0.0 1009.4 28.6
2015-Jan-17 21:00S 15°58' E 087°49'0 0.2 1009.4 28.7
2015-Jan-17 20:00S 15°58' E 087°50'1 1.0 1009.9 28.7
2015-Jan-17 19:00S 15°57' E 087°50'   1010.7 28.7

Dump ship's entire track history